Govan, Canada
Current Conditions -  °F | °C
As of 2:00 AM on Tuesday 21 Oct 2014 (Local Time) from CYQR Reporting Station
Clear Clear  
Wind Chill: 38°   Ceiling: Unl
Heat Index: 45°   Visibility: 15mi
Dew Point: 41°   Wind: 15mph
Humidity: 87%   Direction: 120°ESE
Pressure: 29.72"   Gusts: 22mph
Location:  51.32°N, 105°W
Report Text: CYQR 210800Z 12013G19KT 15SM SKC 07/05 A2972 RMK SLP071
Loading
Personal Weather Stations






























Interactive Weather Map
Tropical Storm Tracking
New forecast layout! Learn more

10-Day Weather Forecast

Advertisements
Track Severe Weather on mobile